sensor_id;sensor_type;location;lat;lon;timestamp;P1;durP1;ratioP1;P2;durP2;ratioP2
66429;SDS011;53242;51.694;10.006;2023-08-08T00:02:06;3.85;;;1.55;;
66429;SDS011;53242;51.694;10.006;2023-08-08T00:04:28;5.22;;;1.70;;
66429;SDS011;53242;51.694;10.006;2023-08-08T00:06:51;3.67;;;1.35;;
66429;SDS011;53242;51.694;10.006;2023-08-08T00:09:13;4.47;;;1.63;;
66429;SDS011;53242;51.694;10.006;2023-08-08T00:11:35;4.60;;;1.40;;
66429;SDS011;53242;51.694;10.006;2023-08-08T00:13:58;4.43;;;1.60;;
66429;SDS011;53242;51.694;10.006;2023-08-08T00:16:20;6.00;;;1.42;;
66429;SDS011;53242;51.694;10.006;2023-08-08T00:18:43;6.28;;;1.95;;
66429;SDS011;53242;51.694;10.006;2023-08-08T00:21:05;4.05;;;1.50;;
66429;SDS011;53242;51.694;10.006;2023-08-08T00:23:28;4.07;;;1.75;;
66429;SDS011;53242;51.694;10.006;2023-08-08T00:25:50;6.63;;;1.58;;
66429;SDS011;53242;51.694;10.006;2023-08-08T00:28:13;4.45;;;1.52;;
66429;SDS011;53242;51.694;10.006;2023-08-08T00:30:35;5.70;;;1.80;;
66429;SDS011;53242;51.694;10.006;2023-08-08T00:32:59;7.05;;;2.22;;
66429;SDS011;53242;51.694;10.006;2023-08-08T00:35:22;7.00;;;1.70;;
66429;SDS011;53242;51.694;10.006;2023-08-08T00:37:44;4.55;;;1.73;;
66429;SDS011;53242;51.694;10.006;2023-08-08T00:40:07;5.72;;;2.05;;
66429;SDS011;53242;51.694;10.006;2023-08-08T00:42:29;5.80;;;1.80;;
66429;SDS011;53242;51.694;10.006;2023-08-08T00:44:52;6.22;;;1.80;;
66429;SDS011;53242;51.694;10.006;2023-08-08T00:47:14;6.22;;;1.73;;
66429;SDS011;53242;51.694;10.006;2023-08-08T00:49:37;6.30;;;2.00;;
66429;SDS011;53242;51.694;10.006;2023-08-08T00:52:00;5.65;;;1.85;;
66429;SDS011;53242;51.694;10.006;2023-08-08T00:54:22;5.18;;;1.88;;
66429;SDS011;53242;51.694;10.006;2023-08-08T00:56:45;6.65;;;2.13;;
66429;SDS011;53242;51.694;10.006;2023-08-08T00:59:08;9.02;;;1.95;;
66429;SDS011;53242;51.694;10.006;2023-08-08T01:01:33;5.00;;;1.75;;
66429;SDS011;53242;51.694;10.006;2023-08-08T01:03:56;5.18;;;2.00;;
66429;SDS011;53242;51.694;10.006;2023-08-08T01:06:28;6.35;;;1.80;;
66429;SDS011;53242;51.694;10.006;2023-08-08T01:08:56;6.60;;;2.13;;
66429;SDS011;53242;51.694;10.006;2023-08-08T01:11:22;5.65;;;1.83;;
66429;SDS011;53242;51.694;10.006;2023-08-08T01:13:46;4.57;;;1.80;;
66429;SDS011;53242;51.694;10.006;2023-08-08T01:16:11;5.82;;;1.88;;
66429;SDS011;53242;51.694;10.006;2023-08-08T01:18:34;4.65;;;1.65;;
66429;SDS011;53242;51.694;10.006;2023-08-08T01:20:58;5.20;;;1.88;;
66429;SDS011;53242;51.694;10.006;2023-08-08T01:26:03;6.32;;;1.90;;
66429;SDS011;53242;51.694;10.006;2023-08-08T01:28:26;11.98;;;3.03;;
66429;SDS011;53242;51.694;10.006;2023-08-08T01:30:48;7.57;;;2.35;;
66429;SDS011;53242;51.694;10.006;2023-08-08T01:33:11;6.88;;;2.10;;
66429;SDS011;53242;51.694;10.006;2023-08-08T01:35:36;5.63;;;2.10;;
66429;SDS011;53242;51.694;10.006;2023-08-08T01:38:08;5.93;;;2.00;;
66429;SDS011;53242;51.694;10.006;2023-08-08T01:40:50;10.23;;;2.45;;
66429;SDS011;53242;51.694;10.006;2023-08-08T01:43:13;8.85;;;2.33;;
66429;SDS011;53242;51.694;10.006;2023-08-08T01:48:00;4.63;;;1.90;;
66429;SDS011;53242;51.694;10.006;2023-08-08T01:50:28;5.53;;;1.85;;
66429;SDS011;53242;51.694;10.006;2023-08-08T01:52:51;4.57;;;1.90;;
66429;SDS011;53242;51.694;10.006;2023-08-08T01:55:13;4.97;;;2.15;;
66429;SDS011;53242;51.694;10.006;2023-08-08T01:57:35;6.82;;;2.17;;
66429;SDS011;53242;51.694;10.006;2023-08-08T01:59:58;6.72;;;2.60;;
66429;SDS011;53242;51.694;10.006;2023-08-08T02:02:20;5.38;;;1.90;;
66429;SDS011;53242;51.694;10.006;2023-08-08T02:04:43;5.18;;;1.88;;
66429;SDS011;53242;51.694;10.006;2023-08-08T02:07:05;5.18;;;2.15;;
66429;SDS011;53242;51.694;10.006;2023-08-08T02:09:28;8.43;;;2.15;;
66429;SDS011;53242;51.694;10.006;2023-08-08T02:11:50;6.57;;;2.08;;
66429;SDS011;53242;51.694;10.006;2023-08-08T02:14:13;7.38;;;1.98;;
66429;SDS011;53242;51.694;10.006;2023-08-08T02:16:35;8.20;;;2.17;;
66429;SDS011;53242;51.694;10.006;2023-08-08T02:18:58;5.75;;;2.03;;
66429;SDS011;53242;51.694;10.006;2023-08-08T02:21:20;7.30;;;1.90;;
66429;SDS011;53242;51.694;10.006;2023-08-08T02:23:44;4.30;;;1.95;;
66429;SDS011;53242;51.694;10.006;2023-08-08T02:26:07;5.43;;;2.10;;
66429;SDS011;53242;51.694;10.006;2023-08-08T02:28:29;7.15;;;1.90;;
66429;SDS011;53242;51.694;10.006;2023-08-08T02:30:52;3.65;;;1.60;;
66429;SDS011;53242;51.694;10.006;2023-08-08T02:33:15;5.70;;;2.28;;
66429;SDS011;53242;51.694;10.006;2023-08-08T02:35:37;5.75;;;1.73;;
66429;SDS011;53242;51.694;10.006;2023-08-08T02:38:00;5.90;;;1.70;;
66429;SDS011;53242;51.694;10.006;2023-08-08T02:40:22;4.65;;;2.08;;
66429;SDS011;53242;51.694;10.006;2023-08-08T02:42:46;4.78;;;1.88;;
66429;SDS011;53242;51.694;10.006;2023-08-08T02:45:08;3.92;;;1.73;;
66429;SDS011;53242;51.694;10.006;2023-08-08T02:47:31;6.82;;;1.95;;
66429;SDS011;53242;51.694;10.006;2023-08-08T02:49:53;8.20;;;2.08;;
66429;SDS011;53242;51.694;10.006;2023-08-08T02:52:16;6.53;;;1.95;;
66429;SDS011;53242;51.694;10.006;2023-08-08T02:54:38;4.35;;;1.75;;
66429;SDS011;53242;51.694;10.006;2023-08-08T02:57:01;6.20;;;1.90;;
66429;SDS011;53242;51.694;10.006;2023-08-08T02:59:24;5.40;;;2.10;;
66429;SDS011;53242;51.694;10.006;2023-08-08T03:01:48;4.65;;;1.67;;
66429;SDS011;53242;51.694;10.006;2023-08-08T03:04:13;5.90;;;1.92;;
66429;SDS011;53242;51.694;10.006;2023-08-08T03:06:36;5.45;;;1.85;;
66429;SDS011;53242;51.694;10.006;2023-08-08T03:08:59;5.07;;;1.80;;
66429;SDS011;53242;51.694;10.006;2023-08-08T03:11:21;3.72;;;1.67;;
66429;SDS011;53242;51.694;10.006;2023-08-08T03:13:44;3.55;;;1.40;;
66429;SDS011;53242;51.694;10.006;2023-08-08T03:16:06;6.53;;;1.80;;
66429;SDS011;53242;51.694;10.006;2023-08-08T03:18:29;3.63;;;1.55;;
66429;SDS011;53242;51.694;10.006;2023-08-08T03:20:52;4.72;;;2.47;;
66429;SDS011;53242;51.694;10.006;2023-08-08T03:23:16;3.35;;;1.35;;
66429;SDS011;53242;51.694;10.006;2023-08-08T03:25:39;3.10;;;1.40;;
66429;SDS011;53242;51.694;10.006;2023-08-08T03:28:02;3.72;;;1.50;;
66429;SDS011;53242;51.694;10.006;2023-08-08T03:30:24;2.95;;;1.20;;
66429;SDS011;53242;51.694;10.006;2023-08-08T03:32:47;3.72;;;1.60;;
66429;SDS011;53242;51.694;10.006;2023-08-08T03:35:10;3.58;;;1.60;;
66429;SDS011;53242;51.694;10.006;2023-08-08T03:37:35;3.85;;;1.45;;
66429;SDS011;53242;51.694;10.006;2023-08-08T03:39:57;3.45;;;1.52;;
66429;SDS011;53242;51.694;10.006;2023-08-08T03:42:20;5.10;;;1.58;;
66429;SDS011;53242;51.694;10.006;2023-08-08T03:44:43;2.92;;;1.40;;
66429;SDS011;53242;51.694;10.006;2023-08-08T03:47:07;4.68;;;1.50;;
66429;SDS011;53242;51.694;10.006;2023-08-08T03:49:29;3.85;;;1.60;;
66429;SDS011;53242;51.694;10.006;2023-08-08T03:51:52;4.75;;;1.55;;
66429;SDS011;53242;51.694;10.006;2023-08-08T03:54:15;3.80;;;1.35;;
66429;SDS011;53242;51.694;10.006;2023-08-08T03:56:39;4.15;;;1.30;;
66429;SDS011;53242;51.694;10.006;2023-08-08T03:59:02;4.35;;;1.50;;
66429;SDS011;53242;51.694;10.006;2023-08-08T04:01:24;3.40;;;1.40;;
66429;SDS011;53242;51.694;10.006;2023-08-08T04:03:47;2.70;;;1.20;;
66429;SDS011;53242;51.694;10.006;2023-08-08T04:06:09;2.63;;;1.23;;
66429;SDS011;53242;51.694;10.006;2023-08-08T04:08:31;4.15;;;1.70;;
66429;SDS011;53242;51.694;10.006;2023-08-08T04:10:54;5.72;;;1.50;;
66429;SDS011;53242;51.694;10.006;2023-08-08T04:13:16;4.82;;;1.70;;
66429;SDS011;53242;51.694;10.006;2023-08-08T04:15:39;3.45;;;1.60;;
66429;SDS011;53242;51.694;10.006;2023-08-08T04:18:02;3.47;;;1.30;;
66429;SDS011;53242;51.694;10.006;2023-08-08T04:20:25;2.90;;;1.52;;
66429;SDS011;53242;51.694;10.006;2023-08-08T04:22:47;3.30;;;1.60;;
66429;SDS011;53242;51.694;10.006;2023-08-08T04:25:10;3.65;;;1.30;;
66429;SDS011;53242;51.694;10.006;2023-08-08T04:27:32;3.42;;;1.40;;
66429;SDS011;53242;51.694;10.006;2023-08-08T04:29:55;2.50;;;1.50;;
66429;SDS011;53242;51.694;10.006;2023-08-08T04:32:17;2.55;;;1.30;;
66429;SDS011;53242;51.694;10.006;2023-08-08T04:34:40;3.60;;;1.33;;
66429;SDS011;53242;51.694;10.006;2023-08-08T04:37:02;5.38;;;1.40;;
66429;SDS011;53242;51.694;10.006;2023-08-08T04:39:25;3.13;;;1.20;;
66429;SDS011;53242;51.694;10.006;2023-08-08T04:41:47;3.42;;;1.13;;
66429;SDS011;53242;51.694;10.006;2023-08-08T04:44:09;4.45;;;1.50;;
66429;SDS011;53242;51.694;10.006;2023-08-08T04:46:32;5.32;;;1.65;;
66429;SDS011;53242;51.694;10.006;2023-08-08T04:48:54;3.33;;;1.48;;
66429;SDS011;53242;51.694;10.006;2023-08-08T04:51:17;2.20;;;1.30;;
66429;SDS011;53242;51.694;10.006;2023-08-08T04:53:39;1.98;;;1.35;;
66429;SDS011;53242;51.694;10.006;2023-08-08T04:56:02;3.03;;;1.48;;
66429;SDS011;53242;51.694;10.006;2023-08-08T04:58:24;2.88;;;1.30;;
66429;SDS011;53242;51.694;10.006;2023-08-08T05:00:47;2.72;;;1.40;;
66429;SDS011;53242;51.694;10.006;2023-08-08T05:03:09;5.03;;;1.50;;
66429;SDS011;53242;51.694;10.006;2023-08-08T05:05:32;3.33;;;1.30;;
66429;SDS011;53242;51.694;10.006;2023-08-08T05:07:54;4.10;;;1.20;;
66429;SDS011;53242;51.694;10.006;2023-08-08T05:10:17;3.80;;;1.63;;
66429;SDS011;53242;51.694;10.006;2023-08-08T05:12:39;2.67;;;1.40;;
66429;SDS011;53242;51.694;10.006;2023-08-08T05:15:02;3.03;;;1.20;;
66429;SDS011;53242;51.694;10.006;2023-08-08T05:17:24;3.88;;;1.25;;
66429;SDS011;53242;51.694;10.006;2023-08-08T05:19:47;4.43;;;1.30;;
66429;SDS011;53242;51.694;10.006;2023-08-08T05:22:09;3.40;;;1.48;;
66429;SDS011;53242;51.694;10.006;2023-08-08T05:24:31;4.03;;;1.33;;
66429;SDS011;53242;51.694;10.006;2023-08-08T05:26:54;3.58;;;1.60;;
66429;SDS011;53242;51.694;10.006;2023-08-08T05:29:16;3.78;;;1.40;;
66429;SDS011;53242;51.694;10.006;2023-08-08T05:31:39;4.72;;;1.35;;
66429;SDS011;53242;51.694;10.006;2023-08-08T05:34:01;3.05;;;1.50;;
66429;SDS011;53242;51.694;10.006;2023-08-08T05:36:24;2.80;;;1.48;;
66429;SDS011;53242;51.694;10.006;2023-08-08T05:38:46;2.78;;;1.20;;
66429;SDS011;53242;51.694;10.006;2023-08-08T05:41:08;3.53;;;1.50;;
66429;SDS011;53242;51.694;10.006;2023-08-08T05:43:31;3.08;;;1.40;;
66429;SDS011;53242;51.694;10.006;2023-08-08T05:45:53;3.40;;;1.67;;
66429;SDS011;53242;51.694;10.006;2023-08-08T05:48:16;2.67;;;1.23;;
66429;SDS011;53242;51.694;10.006;2023-08-08T05:50:39;2.83;;;1.20;;
66429;SDS011;53242;51.694;10.006;2023-08-08T05:53:01;4.38;;;1.58;;
66429;SDS011;53242;51.694;10.006;2023-08-08T05:55:24;4.78;;;1.35;;
66429;SDS011;53242;51.694;10.006;2023-08-08T07:32:35;3.95;;;1.52;;
66429;SDS011;53242;51.694;10.006;2023-08-08T07:34:57;4.75;;;2.33;;
66429;SDS011;53242;51.694;10.006;2023-08-08T07:37:20;3.95;;;1.60;;
66429;SDS011;53242;51.694;10.006;2023-08-08T07:39:42;5.05;;;1.63;;
66429;SDS011;53242;51.694;10.006;2023-08-08T07:42:05;5.82;;;1.63;;
66429;SDS011;53242;51.694;10.006;2023-08-08T07:44:27;3.25;;;1.65;;
66429;SDS011;53242;51.694;10.006;2023-08-08T07:46:49;4.75;;;1.80;;
66429;SDS011;53242;51.694;10.006;2023-08-08T07:49:12;4.80;;;1.63;;
66429;SDS011;53242;51.694;10.006;2023-08-08T07:51:35;3.72;;;1.48;;
66429;SDS011;53242;51.694;10.006;2023-08-08T07:53:58;3.13;;;1.30;;
66429;SDS011;53242;51.694;10.006;2023-08-08T07:56:21;4.28;;;1.70;;
66429;SDS011;53242;51.694;10.006;2023-08-08T07:58:43;8.75;;;2.20;;
66429;SDS011;53242;51.694;10.006;2023-08-08T08:01:06;5.97;;;1.52;;
66429;SDS011;53242;51.694;10.006;2023-08-08T08:03:28;3.80;;;1.65;;
66429;SDS011;53242;51.694;10.006;2023-08-08T08:05:51;3.47;;;1.75;;
66429;SDS011;53242;51.694;10.006;2023-08-08T08:08:13;5.68;;;1.75;;
66429;SDS011;53242;51.694;10.006;2023-08-08T08:10:35;4.53;;;1.88;;
66429;SDS011;53242;51.694;10.006;2023-08-08T08:12:58;4.15;;;1.75;;
66429;SDS011;53242;51.694;10.006;2023-08-08T08:15:20;3.63;;;1.60;;
66429;SDS011;53242;51.694;10.006;2023-08-08T08:17:43;3.72;;;1.77;;
66429;SDS011;53242;51.694;10.006;2023-08-08T08:20:05;4.38;;;2.30;;
66429;SDS011;53242;51.694;10.006;2023-08-08T08:22:32;5.15;;;2.00;;
66429;SDS011;53242;51.694;10.006;2023-08-08T08:24:55;5.20;;;1.42;;
66429;SDS011;53242;51.694;10.006;2023-08-08T08:27:17;4.57;;;1.75;;
66429;SDS011;53242;51.694;10.006;2023-08-08T08:29:40;6.70;;;1.83;;
66429;SDS011;53242;51.694;10.006;2023-08-08T08:32:02;4.00;;;1.45;;
66429;SDS011;53242;51.694;10.006;2023-08-08T08:34:25;2.95;;;1.65;;
66429;SDS011;53242;51.694;10.006;2023-08-08T08:36:47;6.93;;;1.95;;
66429;SDS011;53242;51.694;10.006;2023-08-08T08:39:10;3.42;;;1.40;;
66429;SDS011;53242;51.694;10.006;2023-08-08T08:41:32;4.47;;;1.80;;
66429;SDS011;53242;51.694;10.006;2023-08-08T08:43:59;4.97;;;2.00;;
66429;SDS011;53242;51.694;10.006;2023-08-08T08:46:21;6.47;;;1.90;;
66429;SDS011;53242;51.694;10.006;2023-08-08T08:48:44;3.70;;;1.77;;
66429;SDS011;53242;51.694;10.006;2023-08-08T08:51:07;5.05;;;1.90;;
66429;SDS011;53242;51.694;10.006;2023-08-08T08:53:29;3.20;;;1.40;;
66429;SDS011;53242;51.694;10.006;2023-08-08T08:55:52;7.00;;;2.00;;
66429;SDS011;53242;51.694;10.006;2023-08-08T08:58:15;6.72;;;1.90;;
66429;SDS011;53242;51.694;10.006;2023-08-08T09:00:40;3.50;;;1.48;;
66429;SDS011;53242;51.694;10.006;2023-08-08T09:03:05;2.35;;;1.38;;
66429;SDS011;53242;51.694;10.006;2023-08-08T09:05:28;5.07;;;1.63;;
66429;SDS011;53242;51.694;10.006;2023-08-08T09:07:51;4.28;;;2.05;;
66429;SDS011;53242;51.694;10.006;2023-08-08T09:10:15;7.60;;;2.05;;
66429;SDS011;53242;51.694;10.006;2023-08-08T09:12:37;5.40;;;1.83;;
66429;SDS011;53242;51.694;10.006;2023-08-08T09:15:01;4.38;;;2.08;;
66429;SDS011;53242;51.694;10.006;2023-08-08T09:17:26;5.10;;;2.08;;
66429;SDS011;53242;51.694;10.006;2023-08-08T09:19:49;5.65;;;2.20;;
66429;SDS011;53242;51.694;10.006;2023-08-08T09:22:12;6.43;;;2.30;;
66429;SDS011;53242;51.694;10.006;2023-08-08T09:24:42;6.70;;;2.35;;
66429;SDS011;53242;51.694;10.006;2023-08-08T09:27:04;7.55;;;2.25;;
66429;SDS011;53242;51.694;10.006;2023-08-08T09:29:28;6.18;;;2.35;;
66429;SDS011;53242;51.694;10.006;2023-08-08T09:31:51;4.90;;;1.98;;
66429;SDS011;53242;51.694;10.006;2023-08-08T09:34:13;5.13;;;2.05;;
66429;SDS011;53242;51.694;10.006;2023-08-08T09:36:36;7.00;;;2.42;;
66429;SDS011;53242;51.694;10.006;2023-08-08T09:38:58;7.65;;;2.45;;
66429;SDS011;53242;51.694;10.006;2023-08-08T09:41:21;9.93;;;2.80;;
66429;SDS011;53242;51.694;10.006;2023-08-08T09:43:44;6.85;;;2.63;;
66429;SDS011;53242;51.694;10.006;2023-08-08T09:46:08;7.75;;;2.40;;
66429;SDS011;53242;51.694;10.006;2023-08-08T09:48:30;8.80;;;3.03;;
66429;SDS011;53242;51.694;10.006;2023-08-08T09:50:54;6.57;;;2.15;;
66429;SDS011;53242;51.694;10.006;2023-08-08T09:53:17;6.25;;;1.90;;
66429;SDS011;53242;51.694;10.006;2023-08-08T09:58:03;6.28;;;2.25;;
66429;SDS011;53242;51.694;10.006;2023-08-08T10:00:26;6.80;;;2.30;;
66429;SDS011;53242;51.694;10.006;2023-08-08T10:02:50;5.85;;;2.60;;
66429;SDS011;53242;51.694;10.006;2023-08-08T10:05:14;8.75;;;2.95;;
66429;SDS011;53242;51.694;10.006;2023-08-08T10:07:36;10.65;;;3.28;;
66429;SDS011;53242;51.694;10.006;2023-08-08T10:09:59;6.47;;;2.72;;
66429;SDS011;53242;51.694;10.006;2023-08-08T10:12:21;12.43;;;2.63;;
66429;SDS011;53242;51.694;10.006;2023-08-08T10:14:45;6.80;;;2.50;;
66429;SDS011;53242;51.694;10.006;2023-08-08T10:17:07;8.52;;;2.50;;
66429;SDS011;53242;51.694;10.006;2023-08-08T10:19:30;7.72;;;2.47;;
66429;SDS011;53242;51.694;10.006;2023-08-08T10:21:56;6.32;;;2.67;;
66429;SDS011;53242;51.694;10.006;2023-08-08T10:24:20;5.57;;;2.08;;
66429;SDS011;53242;51.694;10.006;2023-08-08T10:29:23;6.65;;;2.50;;
66429;SDS011;53242;51.694;10.006;2023-08-08T10:31:53;6.03;;;2.50;;
66429;SDS011;53242;51.694;10.006;2023-08-08T10:34:20;5.90;;;2.53;;
66429;SDS011;53242;51.694;10.006;2023-08-08T10:36:44;7.45;;;2.60;;
66429;SDS011;53242;51.694;10.006;2023-08-08T10:39:11;7.00;;;2.70;;
66429;SDS011;53242;51.694;10.006;2023-08-08T10:41:43;9.23;;;2.85;;
66429;SDS011;53242;51.694;10.006;2023-08-08T10:44:08;8.20;;;3.08;;
66429;SDS011;53242;51.694;10.006;2023-08-08T10:46:31;8.27;;;2.58;;
66429;SDS011;53242;51.694;10.006;2023-08-08T10:48:59;6.50;;;2.63;;
66429;SDS011;53242;51.694;10.006;2023-08-08T10:51:23;4.93;;;2.30;;
66429;SDS011;53242;51.694;10.006;2023-08-08T10:53:55;6.68;;;2.80;;
66429;SDS011;53242;51.694;10.006;2023-08-08T10:56:18;7.55;;;2.90;;
66429;SDS011;53242;51.694;10.006;2023-08-08T10:58:41;7.10;;;3.00;;
66429;SDS011;53242;51.694;10.006;2023-08-08T11:01:08;8.27;;;2.90;;
66429;SDS011;53242;51.694;10.006;2023-08-08T11:03:38;7.78;;;3.22;;
66429;SDS011;53242;51.694;10.006;2023-08-08T11:06:02;6.28;;;2.20;;
66429;SDS011;53242;51.694;10.006;2023-08-08T11:08:25;7.55;;;2.60;;
66429;SDS011;53242;51.694;10.006;2023-08-08T11:10:51;6.93;;;2.80;;
66429;SDS011;53242;51.694;10.006;2023-08-08T11:13:14;8.70;;;2.70;;
66429;SDS011;53242;51.694;10.006;2023-08-08T11:15:37;6.97;;;2.90;;
66429;SDS011;53242;51.694;10.006;2023-08-08T11:18:00;9.57;;;3.80;;
66429;SDS011;53242;51.694;10.006;2023-08-08T11:20:23;9.55;;;3.10;;
66429;SDS011;53242;51.694;10.006;2023-08-08T11:22:50;9.10;;;3.90;;
66429;SDS011;53242;51.694;10.006;2023-08-08T11:25:16;8.20;;;3.15;;
66429;SDS011;53242;51.694;10.006;2023-08-08T11:27:38;8.02;;;3.00;;
66429;SDS011;53242;51.694;10.006;2023-08-08T11:30:01;10.68;;;3.95;;
66429;SDS011;53242;51.694;10.006;2023-08-08T11:32:24;8.60;;;3.97;;
66429;SDS011;53242;51.694;10.006;2023-08-08T11:34:50;7.45;;;3.10;;
66429;SDS011;53242;51.694;10.006;2023-08-08T11:37:12;9.10;;;3.10;;
66429;SDS011;53242;51.694;10.006;2023-08-08T11:39:37;7.85;;;3.70;;
66429;SDS011;53242;51.694;10.006;2023-08-08T11:41:59;6.28;;;2.58;;
66429;SDS011;53242;51.694;10.006;2023-08-08T11:44:23;8.75;;;3.10;;
66429;SDS011;53242;51.694;10.006;2023-08-08T11:46:45;8.38;;;3.13;;
66429;SDS011;53242;51.694;10.006;2023-08-08T11:49:11;6.30;;;2.70;;
66429;SDS011;53242;51.694;10.006;2023-08-08T11:51:36;7.88;;;2.92;;
66429;SDS011;53242;51.694;10.006;2023-08-08T11:53:59;6.43;;;2.55;;
66429;SDS011;53242;51.694;10.006;2023-08-08T11:56:23;6.95;;;2.53;;
66429;SDS011;53242;51.694;10.006;2023-08-08T11:58:45;8.57;;;3.38;;
66429;SDS011;53242;51.694;10.006;2023-08-08T12:01:09;9.02;;;3.25;;
66429;SDS011;53242;51.694;10.006;2023-08-08T12:03:32;7.13;;;3.08;;
66429;SDS011;53242;51.694;10.006;2023-08-08T12:05:54;5.95;;;2.83;;
66429;SDS011;53242;51.694;10.006;2023-08-08T12:08:19;7.70;;;2.90;;
66429;SDS011;53242;51.694;10.006;2023-08-08T12:10:47;7.72;;;3.38;;
66429;SDS011;53242;51.694;10.006;2023-08-08T12:13:13;7.75;;;2.70;;
66429;SDS011;53242;51.694;10.006;2023-08-08T12:15:35;6.35;;;2.55;;
66429;SDS011;53242;51.694;10.006;2023-08-08T12:17:58;4.75;;;2.22;;
66429;SDS011;53242;51.694;10.006;2023-08-08T12:20:21;6.15;;;2.85;;
66429;SDS011;53242;51.694;10.006;2023-08-08T12:22:44;5.45;;;2.33;;
66429;SDS011;53242;51.694;10.006;2023-08-08T12:25:07;6.55;;;2.63;;
66429;SDS011;53242;51.694;10.006;2023-08-08T12:27:30;5.88;;;2.70;;
66429;SDS011;53242;51.694;10.006;2023-08-08T12:29:52;7.47;;;2.47;;
66429;SDS011;53242;51.694;10.006;2023-08-08T12:32:15;5.47;;;2.00;;
66429;SDS011;53242;51.694;10.006;2023-08-08T12:34:37;4.57;;;2.20;;
66429;SDS011;53242;51.694;10.006;2023-08-08T12:37:00;5.35;;;2.40;;
66429;SDS011;53242;51.694;10.006;2023-08-08T12:39:22;7.05;;;2.92;;
66429;SDS011;53242;51.694;10.006;2023-08-08T12:41:44;4.53;;;1.75;;
66429;SDS011;53242;51.694;10.006;2023-08-08T12:44:07;4.45;;;1.85;;
66429;SDS011;53242;51.694;10.006;2023-08-08T12:46:30;5.60;;;2.20;;
66429;SDS011;53242;51.694;10.006;2023-08-08T12:48:52;3.83;;;2.30;;
66429;SDS011;53242;51.694;10.006;2023-08-08T12:51:15;5.32;;;2.17;;
66429;SDS011;53242;51.694;10.006;2023-08-08T12:53:39;6.22;;;2.03;;
66429;SDS011;53242;51.694;10.006;2023-08-08T12:56:01;3.20;;;1.50;;
66429;SDS011;53242;51.694;10.006;2023-08-08T12:58:24;4.75;;;1.83;;
66429;SDS011;53242;51.694;10.006;2023-08-08T13:00:46;8.57;;;2.13;;
66429;SDS011;53242;51.694;10.006;2023-08-08T13:03:09;4.78;;;1.85;;
66429;SDS011;53242;51.694;10.006;2023-08-08T13:05:33;6.07;;;1.80;;
66429;SDS011;53242;51.694;10.006;2023-08-08T13:07:56;4.15;;;1.88;;
66429;SDS011;53242;51.694;10.006;2023-08-08T13:10:18;5.50;;;1.63;;
66429;SDS011;53242;51.694;10.006;2023-08-08T13:12:42;5.30;;;2.20;;
66429;SDS011;53242;51.694;10.006;2023-08-08T13:15:04;3.92;;;1.70;;
66429;SDS011;53242;51.694;10.006;2023-08-08T13:17:27;4.72;;;1.50;;
66429;SDS011;53242;51.694;10.006;2023-08-08T13:19:49;5.20;;;1.70;;
66429;SDS011;53242;51.694;10.006;2023-08-08T13:22:12;2.45;;;1.42;;
66429;SDS011;53242;51.694;10.006;2023-08-08T13:24:34;5.57;;;2.05;;
66429;SDS011;53242;51.694;10.006;2023-08-08T13:26:57;5.68;;;2.08;;
66429;SDS011;53242;51.694;10.006;2023-08-08T13:29:19;3.75;;;1.40;;
66429;SDS011;53242;51.694;10.006;2023-08-08T13:31:41;4.10;;;1.10;;
66429;SDS011;53242;51.694;10.006;2023-08-08T13:34:04;3.90;;;2.13;;
66429;SDS011;53242;51.694;10.006;2023-08-08T13:36:26;5.88;;;1.60;;
66429;SDS011;53242;51.694;10.006;2023-08-08T13:38:49;3.58;;;1.80;;
66429;SDS011;53242;51.694;10.006;2023-08-08T13:41:11;6.78;;;1.65;;
66429;SDS011;53242;51.694;10.006;2023-08-08T13:43:34;3.55;;;1.50;;
66429;SDS011;53242;51.694;10.006;2023-08-08T13:45:56;3.40;;;1.25;;
66429;SDS011;53242;51.694;10.006;2023-08-08T13:48:18;2.38;;;1.27;;
66429;SDS011;53242;51.694;10.006;2023-08-08T13:50:41;5.35;;;1.52;;
66429;SDS011;53242;51.694;10.006;2023-08-08T13:53:03;4.32;;;1.58;;
66429;SDS011;53242;51.694;10.006;2023-08-08T13:55:26;4.20;;;1.50;;
66429;SDS011;53242;51.694;10.006;2023-08-08T13:57:49;2.88;;;1.30;;
66429;SDS011;53242;51.694;10.006;2023-08-08T14:00:11;4.00;;;1.42;;
66429;SDS011;53242;51.694;10.006;2023-08-08T14:02:34;4.07;;;1.60;;
66429;SDS011;53242;51.694;10.006;2023-08-08T14:04:57;3.35;;;1.25;;
66429;SDS011;53242;51.694;10.006;2023-08-08T14:07:19;2.45;;;1.50;;
66429;SDS011;53242;51.694;10.006;2023-08-08T14:09:43;4.97;;;1.55;;
66429;SDS011;53242;51.694;10.006;2023-08-08T14:12:06;3.35;;;1.40;;
66429;SDS011;53242;51.694;10.006;2023-08-08T14:14:28;2.40;;;1.33;;
66429;SDS011;53242;51.694;10.006;2023-08-08T14:16:51;3.88;;;1.60;;
66429;SDS011;53242;51.694;10.006;2023-08-08T14:19:13;3.05;;;1.65;;
66429;SDS011;53242;51.694;10.006;2023-08-08T14:21:35;2.38;;;1.25;;
66429;SDS011;53242;51.694;10.006;2023-08-08T14:23:58;3.75;;;1.80;;
66429;SDS011;53242;51.694;10.006;2023-08-08T14:26:20;5.93;;;1.80;;
66429;SDS011;53242;51.694;10.006;2023-08-08T14:28:43;4.63;;;1.70;;
66429;SDS011;53242;51.694;10.006;2023-08-08T14:31:05;4.80;;;1.52;;
66429;SDS011;53242;51.694;10.006;2023-08-08T14:33:28;2.08;;;1.30;;
66429;SDS011;53242;51.694;10.006;2023-08-08T14:35:50;3.90;;;1.50;;
66429;SDS011;53242;51.694;10.006;2023-08-08T14:38:13;4.75;;;1.58;;
66429;SDS011;53242;51.694;10.006;2023-08-08T14:40:35;5.93;;;1.73;;
66429;SDS011;53242;51.694;10.006;2023-08-08T14:42:57;3.17;;;1.67;;
66429;SDS011;53242;51.694;10.006;2023-08-08T14:45:20;2.70;;;1.30;;
66429;SDS011;53242;51.694;10.006;2023-08-08T14:47:43;2.75;;;1.30;;
66429;SDS011;53242;51.694;10.006;2023-08-08T14:50:06;3.90;;;1.20;;
66429;SDS011;53242;51.694;10.006;2023-08-08T14:52:30;3.67;;;1.48;;
66429;SDS011;53242;51.694;10.006;2023-08-08T14:54:52;3.58;;;1.60;;
66429;SDS011;53242;51.694;10.006;2023-08-08T14:57:15;2.75;;;1.30;;
66429;SDS011;53242;51.694;10.006;2023-08-08T14:59:37;3.17;;;1.30;;
66429;SDS011;53242;51.694;10.006;2023-08-08T15:01:59;4.15;;;1.60;;
66429;SDS011;53242;51.694;10.006;2023-08-08T15:04:22;4.25;;;1.40;;
66429;SDS011;53242;51.694;10.006;2023-08-08T15:06:44;2.60;;;1.40;;
66429;SDS011;53242;51.694;10.006;2023-08-08T15:09:06;3.83;;;1.70;;
66429;SDS011;53242;51.694;10.006;2023-08-08T15:11:29;3.13;;;1.50;;
66429;SDS011;53242;51.694;10.006;2023-08-08T15:13:51;3.83;;;1.55;;
66429;SDS011;53242;51.694;10.006;2023-08-08T15:16:14;4.13;;;1.48;;
66429;SDS011;53242;51.694;10.006;2023-08-08T15:18:36;4.22;;;1.52;;
66429;SDS011;53242;51.694;10.006;2023-08-08T15:20:59;3.40;;;1.33;;
66429;SDS011;53242;51.694;10.006;2023-08-08T15:23:21;3.40;;;1.42;;
66429;SDS011;53242;51.694;10.006;2023-08-08T15:25:44;5.20;;;1.98;;
66429;SDS011;53242;51.694;10.006;2023-08-08T15:28:06;3.05;;;1.70;;
66429;SDS011;53242;51.694;10.006;2023-08-08T15:30:29;3.38;;;1.73;;
66429;SDS011;53242;51.694;10.006;2023-08-08T15:32:52;5.38;;;1.60;;
66429;SDS011;53242;51.694;10.006;2023-08-08T15:35:14;3.67;;;1.63;;
66429;SDS011;53242;51.694;10.006;2023-08-08T15:37:37;3.05;;;1.55;;
66429;SDS011;53242;51.694;10.006;2023-08-08T15:40:00;3.75;;;1.50;;
66429;SDS011;53242;51.694;10.006;2023-08-08T15:42:22;3.58;;;1.50;;
66429;SDS011;53242;51.694;10.006;2023-08-08T15:44:44;5.80;;;1.73;;
66429;SDS011;53242;51.694;10.006;2023-08-08T15:47:07;3.92;;;1.52;;
66429;SDS011;53242;51.694;10.006;2023-08-08T15:49:30;3.28;;;1.73;;
66429;SDS011;53242;51.694;10.006;2023-08-08T15:51:52;2.75;;;1.52;;
66429;SDS011;53242;51.694;10.006;2023-08-08T15:54:18;5.63;;;1.80;;